Station: Lajamanu

  Atmospheric Gas Attenuation - ITU Rec 676-11   --------------- db/100km ---------------
Date Time Temp RH % AH g/m3 Dew Point Wind Direction Speed kph Gust kph Barometer mB Rainfall Since 9am 24GHz 47GHz 76GHz 122GHz 134GHz 241GHz
07 06:50 8.8 38 3.31 -4.7 7 7 1016.4 0 8.5 19.3 22.1 57.0 37.7 124.6
07 06:40 8.6 38 3.27 -4.9 6 6 1016.3 0 8.4 19.2 22.0 56.7 37.3 123.3
07 06:30 8.8 38 3.31 -4.7 7 9 1015.1 0 8.5 19.2 22.0 56.9 37.6 124.4
07 06:20 9.1 34 3.02 -5.9 6 7 1016 0 7.9 18.8 21.0 54.1 34.3 112.6
07 06:10 9.4 37 3.35 -4.5 7 9 1016 0 8.6 19.2 22.0 56.9 37.8 125.2
07 06:00 9.4 35 3.17 -5.3 4 6 1014.9 0 8.2 18.9 21.4 55.2 35.8 118.0
07 05:50 9.5 35 3.19 -5.2 0 4 1015.8 0 8.2 18.9 21.5 55.3 36.0 118.7
07 05:40 9.8 36 3.34 -4.5 0 0 1015.7 0 8.6 19.1 21.9 56.5 37.5 124.2
07 05:30 9.9 35 3.27 -4.8 6 6 1014.6 0 8.4 18.9 21.6 55.7 36.7 121.2
07 05:20 9.9 35 3.27 -4.8 4 6 1015.5 0 8.4 19.0 21.6 55.8 36.7 121.3
07 05:10 9.9 34 3.18 -5.2 6 6 1015.3 0 8.2 18.8 21.3 54.9 35.7 117.7
07 04:50 10.7 33 3.24 -4.9 7 7 1015.1 0 8.3 18.7 21.3 54.9 36.0 118.9
07 04:40 10.8 33 3.26 -4.8 7 7 1015.1 0 8.4 18.7 21.3 55.0 36.2 119.5
07 04:30 10.9 32 3.18 -5.1 0 6 1014 0 8.2 18.6 21.0 54.2 35.2 116.1
07 04:20 11.3 31 3.16 -5.2 4 6 1015 0 8.1 18.5 20.9 53.8 34.8 114.9
07 04:10 11.8 30 3.16 -5.2 6 7 1014.9 0 8.1 18.4 20.8 53.5 34.6 114.2
07 04:00 12.4 30 3.28 -4.7 7 9 1013.6 0 8.4 18.4 21.0 54.0 35.6 117.8
07 03:50 12.6 29 3.21 -4.9 9 9 1014.6 0 8.2 18.3 20.7 53.4 34.8 115.0
07 03:40 12.5 29 3.19 -5 9 11 1014.6 0 8.2 18.3 20.7 53.3 34.6 114.4
07 03:30 12.7 29 3.23 -4.9 9 11 1013.3 0 8.2 18.3 20.7 53.4 34.9 115.5
07 03:20 12.9 29 3.27 -4.7 9 11 1014.3 0 8.3 18.3 20.8 53.7 35.3 116.8
07 03:10 13.2 28 3.22 -4.9 9 9 1014.3 0 8.2 18.2 20.6 53.1 34.6 114.5
07 03:00 13.3 28 3.24 -4.8 9 13 1013.2 0 8.2 18.2 20.6 53.1 34.8 115.0
07 02:50 13.5 28 3.28 -4.6 11 13 1014.3 0 8.3 18.2 20.7 53.4 35.2 116.4
07 02:40 13.4 28 3.26 -4.7 11 13 1014.3 0 8.3 18.2 20.7 53.3 35.0 115.7
07 02:30 13.2 29 3.33 -4.4 11 13 1013.1 0 8.4 18.3 20.9 53.9 35.8 118.5
07 02:20 13 29 3.29 -4.6 11 13 1014.2 0 8.4 18.3 20.9 53.8 35.5 117.4
07 02:10 12.8 29 3.25 -4.8 9 11 1014.2 0 8.3 18.3 20.8 53.6 35.1 116.2
07 02:00 12.8 29 3.25 -4.8 9 13 1013.2 0 8.3 18.3 20.8 53.5 35.1 116.1
07 01:50 12.9 28 3.16 -5.1 9 11 1014.2 0 8.1 18.2 20.5 52.7 34.1 112.7
07 01:40 13.1 28 3.2 -5 9 11 1014.2 0 8.2 18.2 20.5 52.9 34.5 113.9
07 01:30 13.3 28 3.24 -4.8 9 13 1013.2 0 8.2 18.2 20.6 53.1 34.8 115.0
07 01:20 13.5 28 3.28 -4.6 9 11 1014.4 0 8.3 18.2 20.7 53.4 35.2 116.4
07 01:10 13.3 28 3.24 -4.8 7 9 1014.4 0 8.2 18.2 20.6 53.2 34.8 115.1
07 01:00 13.2 28 3.22 -4.9 7 9 1013.3 0 8.2 18.2 20.6 53.0 34.6 114.4
07 00:50 13.3 28 3.24 -4.8 7 9 1014.5 0 8.2 18.2 20.6 53.2 34.8 115.2
07 00:40 13.2 28 3.22 -4.9 7 7 1014.5 0 8.2 18.2 20.6 53.1 34.7 114.5
07 00:30 13.5 27 3.16 -5.1 2 7 1013.5 0 8.1 18.0 20.3 52.3 33.9 111.8
07 00:20 13.8 27 3.22 -4.8 6 9 1014.6 0 8.2 18.1 20.5 52.7 34.4 113.7
07 00:10 13.9 27 3.24 -4.8 6 7 1014.7 0 8.2 18.1 20.5 52.8 34.6 114.4
07 00:00 14.3 26 3.19 -4.9 6 7 1013.6 0 8.1 17.9 20.2 52.0 33.8 111.8
06 23:50 14.6 25 3.13 -5.2 6 7 1014.8 0 8.0 17.8 20.0 51.4 33.1 109.3
06 23:40 15.1 24 3.1 -5.3 6 7 1014.8 0 7.9 17.7 19.8 50.9 32.6 107.6
06 23:30 15.5 24 3.17 -5 7 9 1013.7 0 8.0 17.7 19.9 51.1 33.2 109.5
06 23:20 16.2 23 3.17 -4.9 7 7 1014.8 0 8.0 17.6 19.7 50.8 32.9 108.7
06 23:10 16.5 23 3.23 -4.7 9 9 1014.8 0 8.1 17.6 19.8 51.1 33.4 110.5
06 23:00 16.6 23 3.25 -4.6 9 13 1013.6 0 8.2 17.6 19.8 51.1 33.5 111.0
06 22:50 16.6 23 3.25 -4.6 9 11 1014.6 0 8.2 17.6 19.9 51.2 33.6 111.1
06 22:40 16.8 23 3.29 -4.4 9 11 1014.6 0 8.3 17.6 20.0 51.4 33.9 112.3
06 22:30 17 23 3.33 -4.3 9 11 1013.5 0 8.3 17.6 20.0 51.5 34.2 113.3
06 22:20 16.8 23 3.29 -4.4 7 9 1014.5 0 8.3 17.6 20.0 51.4 33.9 112.3
06 22:10 16.8 23 3.29 -4.4 9 11 1014.5 0 8.3 17.6 20.0 51.4 33.9 112.3
06 22:00 17 22 3.18 -4.8 9 13 1013.3 0 8.0 17.4 19.5 50.3 32.6 107.9
06 21:50 17.3 22 3.24 -4.6 9 9 1014.3 0 8.1 17.5 19.7 50.6 33.2 109.8
06 21:40 17.6 21 3.15 -5 9 9 1014.2 0 8.0 17.3 19.3 49.7 32.1 106.2
06 21:30 17.9 21 3.21 -4.7 9 11 1013 0 8.1 17.3 19.4 50.0 32.6 107.8
06 21:20 18.1 21 3.24 -4.5 9 9 1014.1 0 8.1 17.3 19.5 50.2 32.8 108.7
06 21:10 18.5 20 3.16 -4.9 7 9 1014 0 8.0 17.1 19.1 49.3 31.9 105.4
06 21:00 18.7 19 3.04 -5.4 9 11 1012.8 0 7.7 16.9 18.7 48.1 30.6 100.8
06 20:50 19 19 3.1 -5.1 9 11 1013.8 0 7.8 17.0 18.9 48.5 31.1 102.6
06 20:40 19.4 18 3 -5.5 9 11 1013.7 0 7.6 16.8 18.5 47.4 30.0 98.7
06 20:30 19.6 18 3.04 -5.3 11 13 1012.5 0 7.7 16.7 18.5 47.6 30.2 99.7
06 20:20 19.9 18 3.09 -5.1 11 11 1013.5 0 7.8 16.8 18.6 47.9 30.7 101.2
06 20:10 20 18 3.11 -5 13 13 1013.3 0 7.8 16.8 18.6 47.9 30.8 101.7
06 20:00 20.3 17 2.99 -5.5 9 11 1012.1 0 7.6 16.5 18.2 46.8 29.5 97.2
06 19:50 21 16 2.93 -5.7 9 11 1013.1 0 7.4 16.4 17.9 46.0 28.7 94.4
06 19:40 21.5 15 2.83 -6.2 13 13 1012.8 0 7.2 16.2 17.5 44.9 27.6 90.5
06 19:30 22.1 15 2.93 -5.7 15 20 1011.5 0 7.4 16.2 17.6 45.3 28.3 93.1
06 19:20 22.5 15 3 -5.4 15 17 1012.5 0 7.5 16.2 17.8 45.7 28.8 95.1
06 19:10 22.9 14 2.86 -6 15 17 1012.3 0 7.2 16.0 17.3 44.4 27.4 90.0
06 19:00 23.2 14 2.91 -5.7 20 26 1011 0 7.3 15.9 17.3 44.5 27.7 91.2
06 18:50 23.5 14 2.96 -5.5 19 22 1012 0 7.4 16.0 17.4 44.8 28.1 92.6
06 18:40 23.9 14 3.03 -5.2 20 26 1011.8 0 7.6 16.0 17.6 45.1 28.6 94.5
06 18:30 24.3 14 3.1 -4.9 24 32 1010.6 0 7.7 16.0 17.6 45.3 29.1 96.2
06 18:20 24.7 14 3.17 -4.6 22 28 1011.6 0 7.8 16.0 17.8 45.7 29.6 98.1
06 18:10 24.9 13 2.98 -5.4 22 28 1011.5 0 7.4 15.8 17.2 44.2 27.8 91.7
06 18:00 25.3 13 3.04 -5.1 26 35 1010.3 0 7.5 15.7 17.3 44.4 28.2 93.1
06 17:50 25.5 13 3.08 -4.9 26 30 1011.3 0 7.6 15.8 17.4 44.6 28.5 94.3
06 17:40 25.8 13 3.13 -4.7 20 24 1011.2 0 7.7 15.8 17.4 44.8 28.9 95.6
06 17:30 26 13 3.16 -4.5 24 35 1010.1 0 7.8 15.7 17.4 44.9 29.1 96.2
06 17:20 26.4 14 3.49 -3.2 15 19 1011.1 0 8.4 16.1 18.3 47.1 31.9 106.5
06 17:10 26.5 13 3.25 -4.1 24 33 1011 0 7.9 15.8 17.6 45.3 29.7 98.6
06 17:00 26.6 13 3.27 -4 22 37 1009.8 0 8.0 15.8 17.6 45.3 29.8 99.0
06 16:50 26.4 14 3.49 -3.2 30 37 1010.9 0 8.4 16.1 18.3 47.1 31.9 106.5
06 16:40 26.5 14 3.5 -3.1 30 41 1010.8 0 8.5 16.1 18.3 47.1 32.0 106.6
06 16:30 26.8 14 3.56 -2.9 26 37 1009.7 0 8.6 16.1 18.4 47.3 32.4 108.1
06 16:20 26.7 14 3.54 -3 32 35 1010.8 0 8.5 16.1 18.4 47.3 32.3 107.7
06 16:10 27 14 3.6 -2.7 32 39 1010.7 0 8.7 16.1 18.5 47.6 32.7 109.2
06 16:00 27.2 14 3.64 -2.6 24 39 1009.6 0 8.7 16.1 18.5 47.7 33.0 110.2
06 15:50 27.4 14 3.68 -2.4 13 20 1010.8 0 8.8 16.1 18.6 48.0 33.3 111.3
06 15:40 27.7 15 4.01 -1.3 26 30 1010.7 0 9.5 16.4 19.4 50.2 36.2 121.6
06 15:30 27.1 15 3.88 -1.7 32 50 1009.7 0 9.2 16.4 19.2 49.6 35.2 118.1
06 15:20 27.2 17 4.42 0.1 17 20 1010.8 0 10.3 17.0 20.7 53.6 40.2 135.8
06 15:10 27 17 4.38 -0.1 30 52 1009.8 0 10.3 17.0 20.6 53.4 39.9 134.7
06 15:00 27.3 17 4.45 0.1 28 44 1009.9 0 10.4 17.0 20.8 53.7 40.4 136.5
06 14:50 26.6 17 4.28 -0.4 22 30 1011 0 10.1 16.9 20.5 53.0 39.2 132.1
06 14:40 27.5 17 4.5 0.3 24 37 1011.1 0 10.5 17.1 20.9 54.1 40.9 138.0
06 14:30 26.8 17 4.33 -0.3 26 37 1010.1 0 10.2 16.9 20.5 53.2 39.6 133.4
06 14:20 26.6 17 4.28 -0.4 28 35 1011.3 0 10.1 17.0 20.5 53.0 39.2 132.2
06 14:10 26.5 17 4.26 -0.5 28 32 1011.4 0 10.0 17.0 20.4 52.9 39.1 131.7

Last Refresh: 07-Aug-2020 07:05:56

Most of the information presented on this site is sourced from the Bureau of Meteorology.  Copyright in all material sourced from the Bureau of Meteorology resides with the Commonwealth of Australia.